createdAt,value
2022-08-02T00:08:05.358Z,22.76
2022-08-02T00:18:11.724Z,22.72
2022-08-02T00:28:23.111Z,21.92
2022-08-02T00:38:29.565Z,22.09
2022-08-02T00:48:37.199Z,22.09
2022-08-02T00:58:47.879Z,21.55
2022-08-02T01:08:56.313Z,21.55
2022-08-02T01:19:03.642Z,22.11
2022-08-02T01:29:12.023Z,21.75
2022-08-02T01:39:26.742Z,21.52
2022-08-02T01:49:30.050Z,22.00
2022-08-02T01:59:36.660Z,22.00
2022-08-02T02:09:50.795Z,22.16
2022-08-02T02:19:54.304Z,22.15
2022-08-02T02:30:02.311Z,21.84
2022-08-02T02:40:08.550Z,22.02
2022-08-02T02:50:14.733Z,22.02
2022-08-02T03:00:20.975Z,21.94
2022-08-02T03:10:27.180Z,21.98
2022-08-02T03:20:33.380Z,22.02
2022-08-02T03:30:40.191Z,22.09
2022-08-02T03:40:46.436Z,22.05
2022-08-02T03:50:52.576Z,22.05
2022-08-02T04:00:59.999Z,22.02
2022-08-02T04:11:07.618Z,22.02
2022-08-02T04:21:13.903Z,21.92
2022-08-02T04:31:20.331Z,21.98
2022-08-02T04:41:26.386Z,21.98
2022-08-02T04:51:38.025Z,21.94
2022-08-02T05:01:44.051Z,22.02
2022-08-02T05:11:55.050Z,22.02
2022-08-02T05:22:01.413Z,22.12
2022-08-02T05:32:09.626Z,22.20
2022-08-02T05:42:15.740Z,22.27
2022-08-02T05:52:22.198Z,22.33
2022-08-02T06:02:30.601Z,22.41
2022-08-02T06:12:38.813Z,22.37
2022-08-02T06:22:44.859Z,22.45
2022-08-02T06:32:52.238Z,22.59
2022-08-02T06:42:58.967Z,22.70
2022-08-02T06:53:05.689Z,22.75
2022-08-02T07:03:12.583Z,22.75
2022-08-02T07:13:19.620Z,22.76
2022-08-02T07:23:26.907Z,22.81
2022-08-02T07:33:40.112Z,22.88
2022-08-02T07:43:48.599Z,22.88
2022-08-02T07:54:04.177Z,23.05
2022-08-02T08:04:07.177Z,23.19
2022-08-02T08:14:16.811Z,23.24
2022-08-02T08:24:24.048Z,23.43
2022-08-02T08:34:30.424Z,23.43
2022-08-02T08:44:37.257Z,23.68
2022-08-02T08:54:44.904Z,23.81
2022-08-02T09:04:55.895Z,23.96
2022-08-02T09:15:02.864Z,24.11
2022-08-02T09:25:09.876Z,24.27
2022-08-02T09:35:16.797Z,24.38
2022-08-02T09:45:23.753Z,24.56
2022-08-02T09:55:30.909Z,24.75
2022-08-02T10:05:42.804Z,25.01
2022-08-02T10:15:50.556Z,25.32
2022-08-02T10:26:00.372Z,25.81
2022-08-02T10:36:07.795Z,26.82
2022-08-02T10:46:14.659Z,32.13
2022-08-02T10:56:23.942Z,36.32
2022-08-02T11:06:33.482Z,38.12
2022-08-02T11:16:41.278Z,39.06
2022-08-02T11:26:48.183Z,39.08
2022-08-02T11:36:56.233Z,39.34
2022-08-02T11:47:03.373Z,37.27
2022-08-02T11:57:09.139Z,36.57
2022-08-02T12:07:15.272Z,37.47
2022-08-02T12:17:22.747Z,38.27
2022-08-02T12:27:29.810Z,37.02
2022-08-02T12:37:34.177Z,37.16
2022-08-02T12:47:41.099Z,33.34
2022-08-02T12:57:46.478Z,35.15
2022-08-02T13:07:50.807Z,32.27
2022-08-02T13:17:59.098Z,32.59
2022-08-02T13:28:04.655Z,32.71
2022-08-02T13:38:08.896Z,29.75
2022-08-02T13:48:18.481Z,31.49
2022-08-02T13:58:24.670Z,29.91
2022-08-02T14:08:31.865Z,30.19
2022-08-02T14:18:37.279Z,29.48
2022-08-02T14:28:43.119Z,28.70
2022-08-02T14:38:48.971Z,28.38
2022-08-02T14:48:55.286Z,27.91
2022-08-02T15:00:21.007Z,27.59
2022-08-02T15:10:26.638Z,27.16
2022-08-02T15:20:34.089Z,27.08
2022-08-02T15:30:41.220Z,26.88
2022-08-02T15:40:47.439Z,26.71
2022-08-02T15:52:13.562Z,26.57
2022-08-02T16:02:19.662Z,26.47
2022-08-02T16:12:32.134Z,26.38
2022-08-02T16:22:37.781Z,26.30
2022-08-02T16:32:44.394Z,26.25
2022-08-02T16:42:51.271Z,26.16
2022-08-02T16:52:58.543Z,26.05
2022-08-02T17:03:13.082Z,25.86
2022-08-02T17:13:17.659Z,25.78
2022-08-02T17:24:04.537Z,25.75
2022-08-02T17:33:36.184Z,25.67
2022-08-02T17:43:43.004Z,25.61
2022-08-02T17:53:51.331Z,25.53
2022-08-02T18:03:57.596Z,25.46
2022-08-02T18:14:04.634Z,25.38
2022-08-02T18:24:10.980Z,25.25
2022-08-02T18:34:17.509Z,25.23
2022-08-02T18:44:23.864Z,25.15
2022-08-02T18:54:30.972Z,25.09
2022-08-02T19:04:41.441Z,25.01
2022-08-02T19:14:49.573Z,24.98
2022-08-02T19:24:55.941Z,24.80
2022-08-02T19:35:19.838Z,24.46
2022-08-02T19:45:18.175Z,24.46
2022-08-02T20:05:40.388Z,24.53
2022-08-02T20:15:56.440Z,24.48
2022-08-02T20:25:57.981Z,24.45
2022-08-02T20:36:10.333Z,24.42
2022-08-02T20:46:16.894Z,24.32
2022-08-02T20:56:23.207Z,24.30
2022-08-02T21:06:29.616Z,24.22
2022-08-02T21:16:35.928Z,24.12
2022-08-02T21:26:42.538Z,24.07
2022-08-02T21:36:53.858Z,24.01
2022-08-02T21:47:00.066Z,24.01
2022-08-02T21:57:06.768Z,23.88
2022-08-02T22:07:13.705Z,23.82
2022-08-02T22:17:19.784Z,23.63
2022-08-02T22:28:15.889Z,23.53
2022-08-02T22:38:15.210Z,23.45
2022-08-02T22:47:51.146Z,23.33
2022-08-02T22:57:59.350Z,23.18
2022-08-02T22:58:53.873Z,24.56
2022-08-02T23:08:05.185Z,23.10
2022-08-02T23:18:13.073Z,23.04
2022-08-02T23:28:19.823Z,22.96
2022-08-02T23:38:27.375Z,22.98
2022-08-02T23:48:33.869Z,22.98
2022-08-02T23:58:41.885Z,22.96
